createdAt,value
2022-10-05T00:02:39.879Z,11.00
2022-10-05T00:11:02.755Z,11.00
2022-10-05T00:19:34.156Z,16.80
2022-10-05T00:36:21.523Z,16.00
2022-10-05T00:45:02.954Z,16.90
2022-10-05T00:53:31.904Z,17.60
2022-10-05T01:02:01.381Z,11.00
2022-10-05T01:10:43.051Z,19.90
2022-10-05T01:19:21.573Z,14.40
2022-10-05T01:27:47.482Z,15.40
2022-10-05T01:36:21.848Z,11.80
2022-10-05T01:44:56.937Z,10.20
2022-10-05T01:53:42.977Z,10.90
2022-10-05T02:02:13.163Z,14.80
2022-10-05T02:10:58.860Z,24.80
2022-10-05T02:19:30.839Z,14.50
2022-10-05T02:28:04.738Z,21.30
2022-10-05T02:36:34.733Z,17.70
2022-10-05T02:45:06.397Z,12.30
2022-10-05T02:53:35.301Z,24.20
2022-10-05T03:02:15.258Z,13.40
2022-10-05T03:11:07.383Z,19.40
2022-10-05T03:28:25.109Z,26.70
2022-10-05T03:36:48.486Z,16.10
2022-10-05T03:45:33.949Z,11.20
2022-10-05T03:54:29.071Z,14.10
2022-10-05T04:03:28.527Z,17.60
2022-10-05T04:11:56.629Z,14.50
2022-10-05T04:20:25.459Z,12.70
2022-10-05T04:28:57.963Z,14.60
2022-10-05T04:37:46.493Z,12.50
2022-10-05T04:46:24.143Z,11.00
2022-10-05T04:55:22.036Z,17.80
2022-10-05T05:03:57.055Z,12.20
2022-10-05T05:12:46.187Z,17.30
2022-10-05T05:21:12.336Z,15.10
2022-10-05T05:29:45.010Z,15.30
2022-10-05T05:38:21.912Z,21.90
2022-10-05T05:47:09.605Z,18.30
2022-10-05T05:56:00.645Z,16.00
2022-10-05T06:04:35.828Z,255.30
2022-10-05T06:13:06.511Z,17.30
2022-10-05T06:21:42.985Z,17.30
2022-10-05T06:30:09.640Z,28.70
2022-10-05T06:38:54.722Z,17.10
2022-10-05T06:47:24.041Z,16.40
2022-10-05T06:56:17.648Z,12.10
2022-10-05T07:05:32.556Z,14.00
2022-10-05T07:14:11.233Z,13.90
2022-10-05T07:23:03.969Z,91.70
2022-10-05T07:31:31.978Z,12.90
2022-10-05T07:40:10.451Z,15.60
2022-10-05T07:49:03.272Z,11.00
2022-10-05T07:57:45.326Z,10.00
2022-10-05T08:06:15.163Z,14.50
2022-10-05T08:14:57.493Z,12.90
2022-10-05T08:23:57.394Z,8.20
2022-10-05T08:32:45.395Z,18.00
2022-10-05T08:41:14.196Z,13.40
2022-10-05T08:49:46.310Z,8.50
2022-10-05T08:58:24.374Z,12.60
2022-10-05T09:06:51.303Z,8.70
2022-10-05T09:15:25.859Z,10.10
2022-10-05T09:24:05.064Z,12.60
2022-10-05T09:33:05.281Z,14.70
2022-10-05T09:41:31.216Z,11.70
2022-10-05T09:50:04.667Z,12.30
2022-10-05T09:58:47.502Z,8.30
2022-10-05T10:07:35.597Z,40.10
2022-10-05T10:16:33.172Z,12.10
2022-10-05T10:25:19.304Z,11.70
2022-10-05T10:34:18.812Z,10.20
2022-10-05T10:43:19.778Z,10.40
2022-10-05T10:52:16.254Z,31.90
2022-10-05T11:01:01.048Z,8.10
2022-10-05T11:09:58.875Z,23.90
2022-10-05T11:18:41.224Z,8.70
2022-10-05T11:36:18.419Z,8.60
2022-10-05T11:45:11.264Z,11.60
2022-10-05T11:53:39.315Z,7.30
2022-10-05T12:02:21.886Z,8.30
2022-10-05T12:10:59.966Z,9.50
2022-10-05T12:19:36.865Z,10.90
2022-10-05T12:28:13.174Z,12.00
2022-10-05T12:37:03.446Z,12.90
2022-10-05T12:45:53.731Z,8.90
2022-10-05T12:54:31.127Z,6.60
2022-10-05T13:03:10.906Z,7.70
2022-10-05T13:11:43.335Z,10.10
2022-10-05T13:20:47.190Z,8.00
2022-10-05T13:29:25.685Z,6.40
2022-10-05T13:38:15.177Z,5.20
2022-10-05T14:00:26.408Z,5.80
2022-10-05T14:08:53.464Z,20.40
2022-10-05T14:17:36.002Z,7.80
2022-10-05T14:25:59.594Z,8.50
2022-10-05T14:34:32.837Z,22.50
2022-10-05T14:42:57.471Z,13.10
2022-10-05T14:51:33.305Z,12.40
2022-10-05T15:00:18.712Z,21.00
2022-10-05T15:09:35.901Z,155.90
2022-10-05T15:18:08.442Z,31.30
2022-10-05T15:26:57.842Z,65.10
2022-10-05T15:35:40.449Z,88.70
2022-10-05T15:44:09.375Z,31.60
2022-10-05T15:52:49.651Z,16.00
2022-10-05T16:01:18.790Z,16.20
2022-10-05T16:09:59.923Z,786.10
2022-10-05T16:18:29.168Z,1118.60
2022-10-05T16:27:00.005Z,691.20
2022-10-05T16:35:46.248Z,559.30
2022-10-05T16:44:22.636Z,176.40
2022-10-05T16:52:50.855Z,297.90
2022-10-05T17:01:19.835Z,109.10
2022-10-05T17:09:58.751Z,51.90
2022-10-05T17:18:50.488Z,33.00
2022-10-05T17:27:25.168Z,26.40
2022-10-05T17:36:03.521Z,19.60
2022-10-05T17:44:27.288Z,16.50
2022-10-05T17:53:40.547Z,27.10
2022-10-05T18:02:16.248Z,18.70
2022-10-05T18:11:12.564Z,11.00
2022-10-05T18:19:37.822Z,16.40
2022-10-05T18:28:10.182Z,16.90
2022-10-05T18:36:53.848Z,10.30
2022-10-05T18:45:36.524Z,13.50
2022-10-05T18:54:33.227Z,158.60
2022-10-05T19:03:14.378Z,15.50
2022-10-05T19:11:59.176Z,13.60
2022-10-05T19:20:54.230Z,17.40
2022-10-05T19:29:43.550Z,20.00
2022-10-05T19:38:06.393Z,15.10
2022-10-05T19:47:02.593Z,14.40
2022-10-05T19:55:34.660Z,13.20
2022-10-05T20:03:58.255Z,18.40
2022-10-05T20:12:23.462Z,25.70
2022-10-05T20:20:48.647Z,22.60
2022-10-05T20:29:14.231Z,17.40
2022-10-05T20:37:37.046Z,14.70
2022-10-05T20:45:59.988Z,16.60
2022-10-05T20:54:25.212Z,19.80
2022-10-05T21:02:48.853Z,15.30
2022-10-05T21:11:12.843Z,16.40
2022-10-05T21:19:39.807Z,16.20
2022-10-05T21:28:02.655Z,15.20
2022-10-05T21:36:26.290Z,27.90
2022-10-05T21:44:49.157Z,16.40
2022-10-05T21:53:16.430Z,14.10
2022-10-05T22:01:39.702Z,15.90
2022-10-05T22:10:06.180Z,15.70
2022-10-05T22:18:29.254Z,15.50
2022-10-05T22:26:52.962Z,16.20
2022-10-05T22:35:16.714Z,17.60
2022-10-05T22:43:40.465Z,17.10
2022-10-05T22:52:03.651Z,18.30
2022-10-05T23:00:40.452Z,13.00
2022-10-05T23:09:10.143Z,150.70
2022-10-05T23:17:36.148Z,21.20
2022-10-05T23:26:00.955Z,21.20
2022-10-05T23:34:26.168Z,14.90
2022-10-05T23:42:49.732Z,14.90
2022-10-05T23:51:14.974Z,17.80
2022-10-05T23:59:37.798Z,15.40
